Flight Track Log - Related Links

Times and Time Zones

All times are in EDT time to prevent confusion due to time zone crossing. See the AAL1459 flight status page for this flight to view local times or setup timezone preferences in your user account.

Time Position Orientation Groundspeed Altitude Reporting Facility
EDT Latitude Longitude Course Direction KTS MPH feet Rate Location/Type
Wed 02:13:43 PM 42.3140 -70.9080 324° Northwest 277 319 3,900  Level FlightAware ADS-B
Wed 02:14:00 PM 42.5197 -70.7864 324° Northwest  Level FlightAware Approximate
Wed 02:14:13 PM 42.3230 -70.8560 77° East 292 336 5,300  Level FlightAware ADS-B
Wed 02:14:43 PM 42.3330 -70.8000 76° East 307 353 6,600 2,836 Climbing FlightAware ADS-B
Wed 02:15:08 PM 42.3490 -70.7580 63° Northeast 308 354 7,900 3,150 Climbing FlightAware ADS-B
Wed 02:15:23 PM 42.3670 -70.7420 33° Northeast 300 345 8,700 3,200 Climbing FlightAware ADS-B
Wed 02:15:38 PM 42.3870 -70.7350 14° North 297 342 9,500 2,509 Climbing FlightAware ADS-B
Wed 02:16:18 PM 42.4410 -70.7180 13° North 310 357 11,000 2,057 Climbing FlightAware ADS-B
Wed 02:16:48 PM 42.4830 -70.7310 347° North 308 354 11,900 2,486 Climbing FlightAware ADS-B
Wed 02:17:28 PM 42.5340 -70.7710 330° Northwest 317 365 13,900 3,247 Climbing FlightAware ADS-B
Wed 02:18:13 PM 42.5720 -70.8440 305° West 306 352 16,500 3,459 Climbing FlightAware ADS-B
Wed 02:18:53 PM 42.6030 -70.9070 304° West 297 342 18,800 3,075 Climbing FlightAware ADS-B
Wed 02:19:33 PM 42.6340 -70.9710 303° West 304 350 20,600 2,259 Climbing FlightAware ADS-B
Wed 02:20:18 PM 42.6700 -71.0430 304° West 318 366 22,000 1,835 Climbing FlightAware ADS-B
Wed 02:20:58 PM 42.7030 -71.1120 303° West 332 382 23,200 1,875 Climbing FlightAware ADS-B
Wed 02:21:38 PM 42.7370 -71.1840 303° West 338 389 24,500 1,906 Climbing FlightAware ADS-B
Wed 02:22:23 PM 42.7750 -71.2670 302° West 351 404 25,900 1,906 Climbing FlightAware ADS-B
Wed 02:23:03 PM 42.7890 -71.3560 282° West 355 409 27,200 1,906 Climbing FlightAware ADS-B
Wed 02:23:48 PM 42.8110 -71.4490 288° West 350 403 28,600 1,906 Climbing FlightAware ADS-B
Wed 02:24:28 PM 42.8380 -71.5400 292° West 354 407 29,900 1,650 Climbing FlightAware ADS-B
Wed 02:25:08 PM 42.8630 -71.6250 292° West 359 413 30,800 1,200 Climbing FlightAware ADS-B
Wed 02:25:53 PM 42.8900 -71.7170 292° West 367 422 31,600 988 Climbing FlightAware ADS-B
Wed 02:26:33 PM 42.9150 -71.8040 291° West 377 434 32,200 988 Climbing FlightAware ADS-B
Wed 02:27:18 PM 42.9450 -71.9070 292° West 383 441 33,000 1,200 Climbing FlightAware ADS-B
Wed 02:27:58 PM 42.9710 -71.9960 292° West 382 440 33,900 1,350 Climbing FlightAware ADS-B
Wed 02:28:38 PM 42.9960 -72.0860 291° West 380 437 34,800 1,341 Climbing FlightAware ADS-B
Wed 02:29:23 PM 43.0180 -72.1870 287° West 377 434 35,800 1,341 Climbing FlightAware ADS-B
Wed 02:30:03 PM 43.0350 -72.2800 284° West 372 428 36,700 1,200 Climbing FlightAware ADS-B
Wed 02:30:48 PM 43.0470 -72.3860 279° West 375 432 37,500 918 Climbing FlightAware ADS-B
Wed 02:31:28 PM 43.0500 -72.4790 273° West 376 433 38,000 375 Climbing FlightAware ADS-B
Wed 02:32:08 PM 43.0540 -72.5740 273° West 372 428 38,000  Level FlightAware ADS-B
Wed 02:32:53 PM 43.0590 -72.6770 274° West 374 430 38,000  Level FlightAware ADS-B
Wed 02:33:48 PM 43.0640 -72.8000 273° West 372 428 38,000  Level FlightAware ADS-B
Wed 02:35:13 PM 43.0720 -72.9930 273° West 371 427 38,000  Level FlightAware ADS-B
Wed 02:35:53 PM 43.0770 -73.0990 274° West 370 426 38,000  Level FlightAware ADS-B
Wed 02:36:33 PM 43.0800 -73.1890 273° West 371 427 38,000  Level FlightAware ADS-B
Wed 02:37:13 PM 43.0840 -73.2750 274° West 371 427 38,000  Level FlightAware ADS-B
Wed 02:37:58 PM 43.0880 -73.3890 273° West 370 426 38,000  Level FlightAware ADS-B
Wed 02:38:33 PM 43.0910 -73.4630 273° West 370 426 38,000  Level FlightAware ADS-B
Wed 02:39:18 PM 43.0950 -73.5620 273° West 371 427 38,000  Level FlightAware ADS-B
Wed 02:40:18 PM 43.1000 -73.7190 273° West 371 427 38,000  Level FlightAware ADS-B
Wed 02:40:58 PM 43.1020 -73.8010 272° West 371 427 38,000  Level FlightAware ADS-B
Wed 02:41:28 PM 43.1040 -73.8610 273° West 371 427 38,000  Level FlightAware ADS-B
Wed 02:42:23 PM 43.1100 -74.0110 273° West 370 426 38,000  Level FlightAware ADS-B
Wed 02:42:58 PM 43.1130 -74.0920 273° West 369 425 38,000  Level FlightAware ADS-B
Wed 02:43:33 PM 43.1150 -74.1750 272° West 369 425 38,000  Level FlightAware ADS-B
Wed 02:44:08 PM 43.1180 -74.2540 273° West 369 425 38,000  Level FlightAware ADS-B
Wed 02:44:53 PM 43.1210 -74.3610 272° West 368 423 38,000  Level FlightAware ADS-B
Wed 02:45:43 PM 43.1240 -74.4690 272° West 367 422 38,000 -54 Level FlightAware ADS-B
Wed 02:46:44 PM 43.1261 -74.5994 272° West 366 421 37,900 -50 Descending Boston Center
Wed 02:47:44 PM 43.1317 -74.7417 273° West 366 421 37,900  Level Boston Center
Wed 02:48:44 PM 43.1350 -74.8786 272° West 366 421 37,900 50 Level Boston Center
Wed 02:49:44 PM 43.1361 -75.0153 271° West 366 421 38,000 50 Climbing Boston Center
Wed 02:50:44 PM 43.1411 -75.1578 273° West 366 421 38,000  Level Boston Center
Wed 02:51:44 PM 43.1442 -75.2944 272° West 366 421 38,000 -50 Level Boston Center
Wed 02:52:44 PM 43.1467 -75.4369 271° West 366 421 37,900  Descending Boston Center
Wed 02:53:44 PM 43.1494 -75.5736 272° West 366 421 38,000 50 Climbing Boston Center
Wed 02:54:44 PM 43.1539 -75.7106 273° West 366 421 38,000  Level Boston Center
Wed 03:00:48 PM 43.1600 -76.5380 273° West 367 422 38,000 -16 Level FlightAware ADS-B
Wed 03:01:09 PM 43.1603 -76.5897 273° West 366 421 37,900  Descending Cleveland Center
Wed 03:02:09 PM 43.1608 -76.7264 270° West 366 421 38,000 50 Climbing Cleveland Center
Wed 03:03:09 PM 43.1592 -76.8658 269° West 366 421 38,000  Level Cleveland Center
Wed 03:04:09 PM 43.1594 -77.0056 270° West 366 421 38,000  Level Cleveland Center
Wed 03:05:09 PM 43.1594 -77.1450 270° West 366 421 38,000  Level Cleveland Center
Wed 03:06:09 PM 43.1553 -77.2903 268° West 371 427 38,000  Level Cleveland Center
Wed 03:07:09 PM 43.1550 -77.4328 270° West 376 433 38,000  Level Cleveland Center
Wed 03:08:09 PM 43.1547 -77.5722 270° West 376 433 38,000  Level Cleveland Center
Wed 03:09:09 PM 43.1519 -77.7119 268° West 376 433 38,000  Level Cleveland Center
Wed 03:10:09 PM 43.1492 -77.8542 269° West 376 433 38,000  Level Cleveland Center
Wed 03:11:09 PM 43.1503 -77.9936 271° West 371 427 38,000  Level Cleveland Center
Wed 03:12:09 PM 43.1469 -78.1303 268° West 371 427 38,000  Level Cleveland Center
Wed 03:13:09 PM 43.1436 -78.2700 268° West 366 421 38,000  Level Cleveland Center
Wed 03:14:09 PM 43.1422 -78.4067 269° West 366 421 38,000  Level Cleveland Center
Wed 03:15:09 PM 43.1383 -78.5433 268° West 366 421 38,000  Level Cleveland Center
Wed 03:16:09 PM 43.1344 -78.6800 268° West 366 421 38,000  Level Cleveland Center
Wed 03:17:09 PM 43.1303 -78.8167 268° West 366 421 38,000  Level Cleveland Center
Wed 03:17:45 PM 43.1167 -78.8833 254° West 360 414 38,000  Level Toronto Center
Wed 03:18:45 PM 43.1167 -79.0333 270° West 360 414 38,000  Level Toronto Center
Wed 03:19:45 PM 43.1167 -79.1833 270° West 360 414 38,000  Level Toronto Center
Wed 03:20:45 PM 43.1000 -79.3167 260° West 360 414 38,000  Level Toronto Center
Wed 03:21:45 PM 43.1000 -79.4500 270° West 370 426 38,000  Level Toronto Center
Wed 03:22:45 PM 43.1000 -79.5833 270° West 370 426 38,000  Level Toronto Center
Wed 03:23:45 PM 43.0833 -79.7167 260° West 360 414 38,000  Level Toronto Center
Wed 03:24:45 PM 43.0833 -79.8667 270° West 370 426 38,000  Level Toronto Center
Wed 03:25:45 PM 43.0833 -80.0000 270° West 360 414 38,000  Level Toronto Center
Wed 03:26:45 PM 43.0667 -80.1333 260° West 370 426 38,000  Level Toronto Center
Wed 03:27:45 PM 43.0667 -80.2667 270° West 370 426 38,000  Level Toronto Center
Wed 03:28:45 PM 43.0667 -80.4333 270° West 370 426 38,000  Level Toronto Center
Wed 03:29:45 PM 43.0667 -80.5667 270° West 370 426 38,000  Level Toronto Center
Wed 03:30:45 PM 43.0500 -80.7000 260° West 370 426 38,000  Level Toronto Center
Wed 03:31:45 PM 43.0333 -80.8500 261° West 370 426 38,000  Level Toronto Center
Wed 03:32:45 PM 43.0333 -80.9833 270° West 370 426 38,000  Level Toronto Center
Wed 03:34:45 PM 43.0167 -81.2500 265° West 370 426 38,000  Level Toronto Center
Wed 03:40:58 PM 43.0180 -82.1550 265° West 372 428 38,000  Level FlightAware ADS-B
Wed 03:41:43 PM 43.0150 -82.2620 268° West 372 428 38,000  Level FlightAware ADS-B
Wed 03:42:23 PM 43.0120 -82.3570 268° West 372 428 38,000  Level FlightAware ADS-B
Wed 03:43:08 PM 43.0100 -82.4360 268° West 371 427 38,000  Level FlightAware ADS-B
Wed 03:43:48 PM 43.0070 -82.5350 268° West 370 426 38,000  Level FlightAware ADS-B
Wed 03:44:28 PM 43.0050 -82.6330 268° West 369 425 38,000  Level FlightAware ADS-B
Wed 03:45:13 PM 43.0020 -82.7390 268° West 368 423 38,000  Level FlightAware ADS-B
Wed 03:46:03 PM 42.9980 -82.8530 267° West 368 423 38,000  Level FlightAware ADS-B
Wed 03:46:48 PM 42.9950 -82.9460 268° West 367 422 38,000  Level FlightAware ADS-B
Wed 03:47:18 PM 42.9920 -83.0310 267° West 369 425 38,000  Level FlightAware ADS-B
Wed 03:47:53 PM 42.9900 -83.1010 268° West 369 425 38,000  Level FlightAware ADS-B
Wed 03:48:43 PM 42.9850 -83.2390 267° West 371 427 38,000  Level FlightAware ADS-B
Wed 03:49:28 PM 42.9810 -83.3430 267° West 373 429 38,000  Level FlightAware ADS-B
Wed 03:50:03 PM 42.9790 -83.4210 268° West 376 433 38,000  Level FlightAware ADS-B
Wed 03:50:48 PM 42.9750 -83.5330 267° West 379 436 38,000  Level FlightAware ADS-B
Wed 03:51:33 PM 42.9710 -83.6370 267° West 378 435 38,000  Level FlightAware ADS-B
Wed 03:52:18 PM 42.9670 -83.7440 267° West 375 432 38,000  Level FlightAware ADS-B
Wed 03:52:53 PM 42.9590 -83.8310 263° West 376 433 38,000  Level FlightAware ADS-B
Wed 03:53:33 PM 42.9510 -83.9160 263° West 375 432 38,000  Level FlightAware ADS-B
Wed 03:54:18 PM 42.9400 -84.0260 262° West 376 433 38,000  Level FlightAware ADS-B
Wed 03:55:03 PM 42.9290 -84.1350 262° West 377 434 38,000  Level FlightAware ADS-B
Wed 03:55:43 PM 42.9200 -84.2320 263° West 378 435 38,000 -675 Level FlightAware ADS-B
Wed 03:56:23 PM 42.9110 -84.3240 262° West 371 427 37,100 -1,906 Descending FlightAware ADS-B
Wed 03:57:08 PM 42.9000 -84.4240 261° West 373 429 35,300 -2,612 Descending FlightAware ADS-B
Wed 03:57:48 PM 42.8910 -84.5150 262° West 380 437 33,400 -2,329 Descending FlightAware ADS-B
Wed 03:58:33 PM 42.8790 -84.6300 262° West 389 448 32,000 -988 Descending FlightAware ADS-B
Wed 03:59:13 PM 42.8690 -84.7270 262° West 384 442 32,000  Level FlightAware ADS-B
Wed 03:59:53 PM 42.8590 -84.8220 262° West 388 447 32,000  Level FlightAware ADS-B
Wed 04:00:38 PM 42.8480 -84.9290 262° West 391 450 32,000  Level FlightAware ADS-B
Wed 04:01:18 PM 42.8380 -85.0270 262° West 393 452 32,000  Level FlightAware ADS-B
Wed 04:02:03 PM 42.8260 -85.1380 262° West 393 452 32,000  Level FlightAware ADS-B
Wed 04:02:43 PM 42.8150 -85.2370 261° West 394 453 32,000  Level FlightAware ADS-B
Wed 04:03:23 PM 42.8040 -85.3360 261° West 395 455 32,000  Level FlightAware ADS-B
Wed 04:04:08 PM 42.7930 -85.4440 262° West 396 456 32,000 -282 Level FlightAware ADS-B
Wed 04:04:48 PM 42.7790 -85.5390 259° West 397 457 31,600 -1,200 Descending FlightAware ADS-B
Wed 04:05:33 PM 42.7590 -85.6490 256° West 391 450 30,300 -1,976 Descending FlightAware ADS-B
Wed 04:06:13 PM 42.7420 -85.7450 256° West 384 442 28,800 -2,175 Descending FlightAware ADS-B
Wed 04:06:53 PM 42.7250 -85.8380 256° West 392 451 27,400 -2,259 Descending FlightAware ADS-B
Wed 04:07:38 PM 42.7060 -85.9440 256° West 385 443 25,600 -2,400 Descending FlightAware ADS-B
Wed 04:08:18 PM 42.6890 -86.0380 256° West 378 435 24,000 -2,325 Descending FlightAware ADS-B
Wed 04:08:58 PM 42.6720 -86.1300 256° West 368 423 22,500 -2,329 Descending FlightAware ADS-B
Wed 04:09:43 PM 42.6540 -86.2290 256° West 357 411 20,700 -2,047 Descending FlightAware ADS-B
Wed 04:10:23 PM 42.6370 -86.3160 255° West 347 399 19,600 -1,412 Descending FlightAware ADS-B
Wed 04:11:08 PM 42.6200 -86.4090 256° West 348 400 18,700 -1,200 Descending FlightAware ADS-B
Wed 04:11:48 PM 42.6050 -86.4930 256° West 343 395 17,900 -1,125 Descending FlightAware ADS-B
Wed 04:12:28 PM 42.5890 -86.5750 255° West 338 389 17,200 -1,059 Descending FlightAware ADS-B
Wed 04:13:13 PM 42.5720 -86.6680 256° West 333 383 16,400 -1,129 Descending FlightAware ADS-B
Wed 04:13:53 PM 42.5550 -86.7460 254° West 332 382 15,600 -1,133 Descending FlightAware ADS-B
Wed 04:14:43 PM 42.5280 -86.8450 250° West 326 375 14,700 -1,080 Descending FlightAware ADS-B
Wed 04:15:33 PM 42.5030 -86.9370 250° West 327 376 13,800 -1,067 Descending FlightAware ADS-B
Wed 04:16:13 PM 42.4820 -87.0130 249° West 325 374 13,100 -1,129 Descending FlightAware ADS-B
Wed 04:16:58 PM 42.4580 -87.1020 250° West 319 367 12,200 -1,129 Descending FlightAware ADS-B
Wed 04:17:38 PM 42.4390 -87.1720 250° West 319 367 11,500 -1,125 Descending FlightAware ADS-B
Wed 04:18:18 PM 42.4170 -87.2520 250° West 318 366 10,700 -988 Descending FlightAware ADS-B
Wed 04:19:03 PM 42.3950 -87.3310 249° West 320 368 10,100 -424 Descending FlightAware ADS-B
Wed 04:19:43 PM 42.3730 -87.4100 249° West 319 367 10,100  Level FlightAware ADS-B
Wed 04:20:28 PM 42.3500 -87.4940 250° West 318 366 10,100  Level FlightAware ADS-B
Wed 04:20:53 PM 42.3360 -87.5340 245° Southwest 306 352 10,100  Level FlightAware ADS-B
Wed 04:21:08 PM 42.3190 -87.5550 222° Southwest 294 338 10,100 -450 Level FlightAware ADS-B
Wed 04:21:33 PM 42.2930 -87.5830 219° Southwest 278 320 9,800 -1,029 Descending FlightAware ADS-B
Wed 04:21:43 PM 42.2830 -87.5930 216° Southwest 279 321 9,500 -1,867 Descending FlightAware ADS-B
Wed 04:22:18 PM 42.2460 -87.6320 218° Southwest 284 327 8,400 -1,800 Descending FlightAware ADS-B
Wed 04:22:33 PM 42.2310 -87.6480 218° Southwest 286 329 8,000 -1,350 Descending FlightAware ADS-B
Wed 04:22:58 PM 42.2040 -87.6760 218° Southwest 281 323 7,500 -873 Descending FlightAware ADS-B
Wed 04:23:28 PM 42.1770 -87.7060 219° Southwest 263 303 7,200 -400 Descending FlightAware ADS-B
Wed 04:23:58 PM 42.1470 -87.7360 217° Southwest 237 273 7,100 -109 Descending FlightAware ADS-B
Wed 04:24:23 PM 42.1280 -87.7570 219° Southwest 227 261 7,100  Level FlightAware ADS-B
Wed 04:24:53 PM 42.1070 -87.7890 229° Southwest 224 258 7,100  Level FlightAware ADS-B
Wed 04:25:08 PM 42.1000 -87.8070 242° Southwest 223 257 7,100  Level FlightAware ADS-B
Wed 04:25:33 PM 42.0900 -87.8360 245° Southwest 222 255 7,100  Level FlightAware ADS-B
Wed 04:26:03 PM 42.0760 -87.8760 245° Southwest 222 255 7,100  Level FlightAware ADS-B
Wed 04:26:18 PM 42.0690 -87.8940 242° Southwest 224 258 7,100  Level FlightAware ADS-B
Wed 04:26:43 PM 42.0610 -87.9250 251° West 200 230 7,100  Level FlightAware ADS-B
Wed 04:27:13 PM 42.0590 -87.9590 265° West 175 201 7,100  Level FlightAware ADS-B
Wed 04:27:38 PM 42.0570 -87.9870 265° West 173 199 7,100 -109 Level FlightAware ADS-B
Wed 04:28:08 PM 42.0560 -88.0160 267° West 175 201 7,000 -700 Descending FlightAware ADS-B
Wed 04:28:38 PM 42.0540 -88.0470 265° West 176 203 6,400 -1,309 Descending FlightAware ADS-B
Wed 04:29:03 PM 42.0530 -88.0790 268° West 183 211 5,800 -1,309 Descending FlightAware ADS-B
Wed 04:29:33 PM 42.0520 -88.1140 268° West 182 209 5,200 -1,091 Descending FlightAware ADS-B
Wed 04:29:58 PM 42.0510 -88.1430 267° West 182 209 4,800 -982 Descending FlightAware ADS-B
Wed 04:30:28 PM 42.0500 -88.1770 268° West 184 212 4,300 -933 Descending FlightAware ADS-B
Wed 04:30:43 PM 42.0490 -88.1940 265° West 183 211 4,100 -300 Descending FlightAware ADS-B
Wed 04:31:08 PM 42.0480 -88.2220 267° West 179 206 4,100  Level FlightAware ADS-B
Wed 04:31:38 PM 42.0450 -88.2540 263° West 178 205 4,100  Level FlightAware ADS-B
Wed 04:31:53 PM 42.0360 -88.2640 220° Southwest 184 212 4,100  Level FlightAware ADS-B
Wed 04:32:03 PM 42.0260 -88.2660 188° South 189 217 4,100  Level FlightAware ADS-B
Wed 04:32:33 PM 42.0010 -88.2610 172° South 192 221 4,100  Level FlightAware ADS-B
Wed 04:32:48 PM 41.9920 -88.2470 131° Southeast 191 220 4,100  Level FlightAware ADS-B
Wed 04:33:03 PM 41.9870 -88.2330 116° Southeast 189 217 4,100  Level FlightAware ADS-B
Wed 04:33:28 PM 41.9760 -88.2070 120° Southeast 193 222 4,100  Level FlightAware ADS-B
Wed 04:33:58 PM 41.9680 -88.1730 108° East 189 217 4,100 -300 Level FlightAware ADS-B
Wed 04:34:28 PM 41.9680 -88.1390 90° East 191 220 3,800 -943 Descending FlightAware ADS-B
Wed 04:35:08 PM 41.9690 -88.0880 88° East 194 223 3,000 -1,114 Descending FlightAware ADS-B
Wed 04:35:38 PM 41.9690 -88.0550 90° East 184 212 2,500 -960 Descending FlightAware ADS-B
Wed 04:35:58 PM 41.9690 -88.0340 90° East 175 201 2,200 -800 Descending FlightAware ADS-B
Wed 04:36:23 PM 41.9690 -88.0100 90° East 154 177 1,900 -840 Descending FlightAware ADS-B
Wed 04:36:48 PM 41.9690 -87.9840 90° East 144 166 1,500 -831 Descending FlightAware ADS-B
Wed 04:37:28 PM 41.9690 -87.9490 90° East 145 167 1,000 -700 Descending FlightAware ADS-B
Wed 04:37:48 PM 41.9690 -87.9330 90° East 143 165 800 -360 Descending FlightAware ADS-B
Wed 04:38:18 PM 41.9690 -87.9060 90° East 144 166 700 -200 Descending FlightAware ADS-B

Login

Don't have an account? Register now (free) for customized features, flight alerts, and more!